WZZ5287 LROP-LGAV
Flight info
| Callsign | WZZ5287 |
|---|---|
| Flight time | 1h 20m |
| Altitude | 37000 |
| Route | POLUN DCT TIMUR N181 NIKTI DCT KOROS UG33 NEVRA |
| Aircraft | A320/M-SDE3FGHIRWY/LB1 |
Departure
| Time | 2026-05-07 12:24 |
|---|---|
| Airport | Bucharest Henri Coandă International Airport (LROP) |
Arrival
| Time | 2026-05-07 13:45 |
|---|---|
| Airport | Athens Eleftherios Venizelos International Airport (LGAV) |
| Time | Latitude | Longitude | Altitude | Speed | Heading |
|---|---|---|---|---|---|
| 2026-05-07 11:50 | 44.57135 | 26.08059 | 323 ft | 0 kts | 174° |
| 2026-05-07 12:15 | 44.57152 | 26.08057 | 322 ft | 4 kts | 174° |
| 2026-05-07 12:15 | 44.57178 | 26.08051 | 321 ft | 4 kts | 154° |
| 2026-05-07 12:15 | 44.57196 | 26.08029 | 322 ft | 4 kts | 104° |
| 2026-05-07 12:15 | 44.57197 | 26.08008 | 320 ft | 1 kts | 84° |
| 2026-05-07 12:16 | 44.57197 | 26.08005 | 320 ft | 0 kts | 84° |
| 2026-05-07 12:18 | 44.57197 | 26.08009 | 320 ft | 2 kts | 84° |
| 2026-05-07 12:19 | 44.57200 | 26.08046 | 320 ft | 7 kts | 84° |
| 2026-05-07 12:19 | 44.57207 | 26.08143 | 323 ft | 12 kts | 84° |
| 2026-05-07 12:19 | 44.57217 | 26.08275 | 323 ft | 15 kts | 84° |
| 2026-05-07 12:19 | 44.57152 | 26.08368 | 323 ft | 13 kts | 174° |
| 2026-05-07 12:20 | 44.57085 | 26.08377 | 323 ft | 15 kts | 174° |
| 2026-05-07 12:20 | 44.56979 | 26.08394 | 322 ft | 13 kts | 174° |
| 2026-05-07 12:20 | 44.56884 | 26.08395 | 323 ft | 14 kts | 212° |
| 2026-05-07 12:20 | 44.56830 | 26.08267 | 323 ft | 16 kts | 242° |
| 2026-05-07 12:21 | 44.56775 | 26.08113 | 323 ft | 19 kts | 251° |
| 2026-05-07 12:21 | 44.56739 | 26.07926 | 323 ft | 21 kts | 254° |
| 2026-05-07 12:21 | 44.56701 | 26.07736 | 323 ft | 16 kts | 254° |
| 2026-05-07 12:21 | 44.56638 | 26.07664 | 321 ft | 14 kts | 170° |
| 2026-05-07 12:22 | 44.56584 | 26.07674 | 323 ft | 0 kts | 174° |
| 2026-05-07 12:22 | 44.56577 | 26.07675 | 323 ft | 2 kts | 174° |
| 2026-05-07 12:23 | 44.56535 | 26.07681 | 322 ft | 9 kts | 174° |
| 2026-05-07 12:23 | 44.56471 | 26.07695 | 323 ft | 8 kts | 149° |
| 2026-05-07 12:23 | 44.56472 | 26.07774 | 323 ft | 9 kts | 83° |
| 2026-05-07 12:23 | 44.56493 | 26.08062 | 324 ft | 64 kts | 84° |
| 2026-05-07 12:24 | 44.56564 | 26.08992 | 323 ft | 124 kts | 84° |
| 2026-05-07 12:24 | 44.56668 | 26.10400 | 482 ft | 156 kts | 84° |
| 2026-05-07 12:24 | 44.56799 | 26.11935 | 1080 ft | 162 kts | 84° |
| 2026-05-07 12:24 | 44.56965 | 26.13515 | 1692 ft | 163 kts | 83° |
| 2026-05-07 12:25 | 44.57161 | 26.15151 | 2164 ft | 176 kts | 83° |
| 2026-05-07 12:25 | 44.57384 | 26.16890 | 2700 ft | 188 kts | 81° |
| 2026-05-07 12:25 | 44.57635 | 26.18758 | 3289 ft | 200 kts | 81° |
| 2026-05-07 12:25 | 44.57862 | 26.20714 | 3929 ft | 210 kts | 85° |
| 2026-05-07 12:26 | 44.57960 | 26.22874 | 4362 ft | 234 kts | 88° |
| 2026-05-07 12:26 | 44.58026 | 26.25272 | 4843 ft | 258 kts | 87° |
| 2026-05-07 12:26 | 44.58102 | 26.27882 | 5482 ft | 275 kts | 91° |
| 2026-05-07 12:26 | 44.57672 | 26.30523 | 6326 ft | 282 kts | 117° |
| 2026-05-07 12:27 | 44.56472 | 26.32686 | 7202 ft | 285 kts | 143° |
| 2026-05-07 12:27 | 44.54741 | 26.33911 | 8099 ft | 284 kts | 169° |
| 2026-05-07 12:27 | 44.52758 | 26.34286 | 9061 ft | 285 kts | 176° |
| 2026-05-07 12:27 | 44.50778 | 26.34566 | 9987 ft | 288 kts | 176° |
| 2026-05-07 12:28 | 44.48730 | 26.34846 | 10458 ft | 307 kts | 176° |
| 2026-05-07 12:28 | 44.46555 | 26.35142 | 10758 ft | 328 kts | 176° |
| 2026-05-07 12:28 | 44.44251 | 26.35462 | 11375 ft | 336 kts | 176° |
| 2026-05-07 12:28 | 44.41899 | 26.35716 | 12085 ft | 340 kts | 182° |
| 2026-05-07 12:29 | 44.39573 | 26.35149 | 12844 ft | 341 kts | 200° |
| 2026-05-07 12:29 | 44.37489 | 26.33574 | 13586 ft | 344 kts | 218° |
| 2026-05-07 12:29 | 44.35864 | 26.31111 | 14217 ft | 349 kts | 237° |
| 2026-05-07 12:29 | 44.34886 | 26.27993 | 14836 ft | 354 kts | 253° |
| 2026-05-07 12:30 | 44.34207 | 26.24668 | 15512 ft | 356 kts | 253° |
| 2026-05-07 12:30 | 44.33529 | 26.21332 | 16198 ft | 358 kts | 253° |
| 2026-05-07 12:30 | 44.32843 | 26.17978 | 16889 ft | 360 kts | 253° |
| 2026-05-07 12:30 | 44.32146 | 26.14595 | 17520 ft | 364 kts | 254° |
| 2026-05-07 12:31 | 44.31440 | 26.11184 | 18154 ft | 368 kts | 254° |
| 2026-05-07 12:31 | 44.30721 | 26.07733 | 18733 ft | 371 kts | 254° |
| 2026-05-07 12:31 | 44.29995 | 26.04266 | 19312 ft | 374 kts | 254° |
| 2026-05-07 12:31 | 44.29262 | 26.00764 | 19892 ft | 377 kts | 254° |
| 2026-05-07 12:32 | 44.28526 | 25.97242 | 20483 ft | 379 kts | 255° |
| 2026-05-07 12:32 | 44.27788 | 25.93698 | 21065 ft | 382 kts | 255° |
| 2026-05-07 12:32 | 44.27043 | 25.90131 | 21619 ft | 384 kts | 255° |
| 2026-05-07 12:32 | 44.26293 | 25.86545 | 22180 ft | 386 kts | 255° |
| 2026-05-07 12:33 | 44.24777 | 25.79313 | 23254 ft | 391 kts | 256° |
| 2026-05-07 12:33 | 44.24245 | 25.75594 | 23768 ft | 391 kts | 265° |
| 2026-05-07 12:33 | 44.24148 | 25.71801 | 24220 ft | 392 kts | 270° |
| 2026-05-07 12:34 | 44.24132 | 25.67989 | 24679 ft | 394 kts | 270° |
| 2026-05-07 12:34 | 44.24112 | 25.64153 | 25125 ft | 396 kts | 270° |
| 2026-05-07 12:34 | 44.24087 | 25.60358 | 25567 ft | 398 kts | 270° |
| 2026-05-07 12:34 | 44.24057 | 25.56496 | 26010 ft | 399 kts | 270° |
| 2026-05-07 12:35 | 44.24023 | 25.52612 | 26444 ft | 401 kts | 270° |
| 2026-05-07 12:35 | 44.23989 | 25.48713 | 26841 ft | 404 kts | 270° |
| 2026-05-07 12:35 | 44.23955 | 25.44789 | 27250 ft | 406 kts | 270° |
| 2026-05-07 12:35 | 44.23921 | 25.40846 | 27676 ft | 408 kts | 270° |
| 2026-05-07 12:36 | 44.23884 | 25.36877 | 28119 ft | 410 kts | 270° |
| 2026-05-07 12:36 | 44.23846 | 25.32892 | 28515 ft | 413 kts | 269° |
| 2026-05-07 12:36 | 44.23793 | 25.28881 | 28909 ft | 415 kts | 267° |
| 2026-05-07 12:36 | 44.23377 | 25.24876 | 29322 ft | 418 kts | 257° |
| 2026-05-07 12:37 | 44.22448 | 25.21020 | 29723 ft | 422 kts | 248° |
| 2026-05-07 12:37 | 44.21021 | 25.17426 | 30113 ft | 427 kts | 238° |
| 2026-05-07 12:37 | 44.19221 | 25.14111 | 30454 ft | 430 kts | 235° |
| 2026-05-07 12:37 | 44.17386 | 25.10801 | 30814 ft | 432 kts | 235° |
| 2026-05-07 12:38 | 44.15555 | 25.07481 | 31177 ft | 433 kts | 235° |
| 2026-05-07 12:38 | 44.13724 | 25.04150 | 31589 ft | 433 kts | 235° |
| 2026-05-07 12:38 | 44.11903 | 25.00835 | 32134 ft | 430 kts | 235° |
| 2026-05-07 12:38 | 44.10090 | 24.97547 | 32688 ft | 427 kts | 235° |
| 2026-05-07 12:39 | 44.08307 | 24.94319 | 33236 ft | 424 kts | 235° |
| 2026-05-07 12:39 | 44.06517 | 24.91082 | 33789 ft | 421 kts | 235° |
| 2026-05-07 12:39 | 44.04738 | 24.87868 | 34303 ft | 418 kts | 235° |
| 2026-05-07 12:39 | 44.02964 | 24.84665 | 34746 ft | 417 kts | 235° |
| 2026-05-07 12:40 | 44.01196 | 24.81475 | 35159 ft | 416 kts | 234° |
| 2026-05-07 12:40 | 43.99429 | 24.78294 | 35540 ft | 416 kts | 234° |
| 2026-05-07 12:40 | 43.97660 | 24.75118 | 35904 ft | 416 kts | 234° |
| 2026-05-07 12:40 | 43.95886 | 24.71942 | 36272 ft | 416 kts | 234° |
| 2026-05-07 12:41 | 43.94114 | 24.68777 | 36619 ft | 415 kts | 234° |
| 2026-05-07 12:41 | 43.92343 | 24.65607 | 36963 ft | 416 kts | 233° |
| 2026-05-07 12:41 | 43.88834 | 24.59322 | 37037 ft | 414 kts | 233° |
| 2026-05-07 12:42 | 43.85306 | 24.53027 | 37019 ft | 413 kts | 233° |
| 2026-05-07 12:42 | 43.81774 | 24.46740 | 37047 ft | 414 kts | 233° |
| 2026-05-07 12:43 | 43.78238 | 24.40456 | 37045 ft | 414 kts | 233° |
| 2026-05-07 12:43 | 43.74694 | 24.34174 | 37048 ft | 414 kts | 233° |
| 2026-05-07 12:44 | 43.70861 | 24.28228 | 37049 ft | 417 kts | 220° |
| 2026-05-07 12:44 | 43.68432 | 24.26017 | 37049 ft | 420 kts | 209° |
| 2026-05-07 12:44 | 43.65714 | 24.24510 | 37048 ft | 424 kts | 198° |
| 2026-05-07 12:45 | 43.62801 | 24.23758 | 37042 ft | 428 kts | 187° |
| 2026-05-07 12:45 | 43.59813 | 24.23614 | 37041 ft | 430 kts | 185° |
| 2026-05-07 12:45 | 43.53820 | 24.23431 | 37047 ft | 431 kts | 185° |
| 2026-05-07 12:46 | 43.47860 | 24.23260 | 37042 ft | 432 kts | 184° |
| 2026-05-07 12:46 | 43.41842 | 24.23073 | 37042 ft | 432 kts | 185° |
| 2026-05-07 12:47 | 43.35821 | 24.22878 | 37045 ft | 433 kts | 185° |
| 2026-05-07 12:47 | 43.29793 | 24.22682 | 37043 ft | 434 kts | 185° |
| 2026-05-07 12:48 | 43.23756 | 24.22489 | 37048 ft | 434 kts | 185° |
| 2026-05-07 12:48 | 43.17707 | 24.22304 | 37052 ft | 435 kts | 185° |
| 2026-05-07 12:49 | 43.11657 | 24.22116 | 37055 ft | 435 kts | 185° |
| 2026-05-07 12:49 | 43.05604 | 24.21877 | 37065 ft | 435 kts | 186° |
| 2026-05-07 12:50 | 42.99563 | 24.21456 | 37067 ft | 434 kts | 187° |
| 2026-05-07 12:50 | 42.93558 | 24.21002 | 37066 ft | 435 kts | 186° |
| 2026-05-07 12:51 | 42.87506 | 24.20597 | 37078 ft | 436 kts | 186° |
| 2026-05-07 12:51 | 42.81444 | 24.20225 | 37085 ft | 436 kts | 186° |
| 2026-05-07 12:52 | 42.75375 | 24.19841 | 37088 ft | 437 kts | 186° |
| 2026-05-07 12:52 | 42.69299 | 24.19438 | 37096 ft | 437 kts | 186° |
| 2026-05-07 12:53 | 42.63218 | 24.19042 | 37099 ft | 437 kts | 186° |
| 2026-05-07 12:53 | 42.57139 | 24.18652 | 37104 ft | 438 kts | 186° |
| 2026-05-07 12:54 | 42.51059 | 24.18270 | 37089 ft | 438 kts | 187° |
| 2026-05-07 12:54 | 42.44959 | 24.17879 | 37089 ft | 439 kts | 187° |
| 2026-05-07 12:55 | 42.38857 | 24.17483 | 37089 ft | 439 kts | 187° |
| 2026-05-07 12:55 | 42.32743 | 24.17096 | 37084 ft | 440 kts | 187° |
| 2026-05-07 12:56 | 42.26624 | 24.16709 | 37087 ft | 440 kts | 187° |
| 2026-05-07 12:56 | 42.20537 | 24.16316 | 37094 ft | 441 kts | 187° |
| 2026-05-07 12:57 | 42.14410 | 24.15919 | 37104 ft | 441 kts | 187° |
| 2026-05-07 12:57 | 42.08281 | 24.15524 | 37106 ft | 441 kts | 187° |
| 2026-05-07 12:58 | 42.02151 | 24.15139 | 37117 ft | 441 kts | 187° |
| 2026-05-07 12:58 | 41.96015 | 24.14762 | 37113 ft | 441 kts | 187° |
| 2026-05-07 12:59 | 41.89872 | 24.14380 | 37126 ft | 441 kts | 187° |
| 2026-05-07 12:59 | 41.83734 | 24.13986 | 37136 ft | 442 kts | 187° |
| 2026-05-07 13:00 | 41.77588 | 24.13601 | 37134 ft | 442 kts | 187° |
| 2026-05-07 13:00 | 41.71437 | 24.13220 | 37142 ft | 442 kts | 187° |
| 2026-05-07 13:01 | 41.65288 | 24.12839 | 37152 ft | 443 kts | 187° |
| 2026-05-07 13:01 | 41.59136 | 24.12448 | 37149 ft | 443 kts | 187° |
| 2026-05-07 13:02 | 41.52964 | 24.12760 | 37149 ft | 449 kts | 173° |
| 2026-05-07 13:02 | 41.46867 | 24.14781 | 37146 ft | 452 kts | 170° |
| 2026-05-07 13:03 | 41.40777 | 24.16838 | 37143 ft | 452 kts | 170° |
| 2026-05-07 13:03 | 41.34611 | 24.17967 | 37135 ft | 447 kts | 179° |
| 2026-05-07 13:04 | 41.28421 | 24.18752 | 37135 ft | 447 kts | 179° |
| 2026-05-07 13:04 | 41.22221 | 24.19524 | 37139 ft | 447 kts | 179° |
| 2026-05-07 13:05 | 41.16020 | 24.20296 | 37130 ft | 448 kts | 179° |
| 2026-05-07 13:05 | 41.09845 | 24.21068 | 37136 ft | 449 kts | 179° |
| 2026-05-07 13:06 | 41.03617 | 24.21842 | 37141 ft | 449 kts | 179° |
| 2026-05-07 13:06 | 40.97395 | 24.22619 | 37135 ft | 450 kts | 179° |
| 2026-05-07 13:07 | 40.91149 | 24.23385 | 37136 ft | 450 kts | 179° |
| 2026-05-07 13:07 | 40.84905 | 24.24155 | 37143 ft | 450 kts | 179° |
| 2026-05-07 13:08 | 40.78668 | 24.24930 | 37145 ft | 450 kts | 179° |
| 2026-05-07 13:08 | 40.72426 | 24.25707 | 37157 ft | 450 kts | 179° |
| 2026-05-07 13:09 | 40.67239 | 24.26346 | 37148 ft | 450 kts | 179° |
| 2026-05-07 13:09 | 40.59983 | 24.27233 | 37149 ft | 450 kts | 179° |
| 2026-05-07 13:10 | 40.54756 | 24.27876 | 37145 ft | 450 kts | 179° |
| 2026-05-07 13:10 | 40.48523 | 24.28635 | 37147 ft | 450 kts | 179° |
| 2026-05-07 13:11 | 40.42296 | 24.29394 | 37157 ft | 450 kts | 179° |
| 2026-05-07 13:11 | 40.36062 | 24.30160 | 37145 ft | 450 kts | 179° |
| 2026-05-07 13:12 | 40.29834 | 24.30919 | 37147 ft | 450 kts | 179° |
| 2026-05-07 13:12 | 40.23597 | 24.31671 | 37149 ft | 449 kts | 179° |
| 2026-05-07 13:13 | 40.17373 | 24.32420 | 37148 ft | 449 kts | 179° |
| 2026-05-07 13:13 | 40.11182 | 24.33176 | 37149 ft | 450 kts | 179° |
| 2026-05-07 13:14 | 40.04952 | 24.33933 | 37148 ft | 450 kts | 179° |
| 2026-05-07 13:14 | 39.98712 | 24.34679 | 37150 ft | 450 kts | 179° |
| 2026-05-07 13:15 | 39.92478 | 24.35428 | 37138 ft | 450 kts | 179° |
| 2026-05-07 13:15 | 39.86230 | 24.36180 | 37141 ft | 451 kts | 179° |
| 2026-05-07 13:16 | 39.79981 | 24.36929 | 37147 ft | 451 kts | 179° |
| 2026-05-07 13:16 | 39.73727 | 24.37680 | 37133 ft | 451 kts | 179° |
| 2026-05-07 13:17 | 39.67474 | 24.38425 | 37128 ft | 452 kts | 179° |
| 2026-05-07 13:17 | 39.61207 | 24.39174 | 37125 ft | 452 kts | 179° |
| 2026-05-07 13:18 | 39.54927 | 24.39928 | 37126 ft | 453 kts | 179° |
| 2026-05-07 13:18 | 39.48646 | 24.40672 | 37115 ft | 454 kts | 179° |
| 2026-05-07 13:19 | 39.42351 | 24.41418 | 37124 ft | 454 kts | 179° |
| 2026-05-07 13:19 | 39.36049 | 24.42163 | 37138 ft | 455 kts | 179° |
| 2026-05-07 13:20 | 39.32898 | 24.42534 | 37020 ft | 456 kts | 180° |
| 2026-05-07 13:20 | 39.29738 | 24.42906 | 36753 ft | 455 kts | 179° |
| 2026-05-07 13:20 | 39.26584 | 24.43277 | 36474 ft | 455 kts | 179° |
| 2026-05-07 13:20 | 39.23422 | 24.43648 | 35729 ft | 458 kts | 179° |
| 2026-05-07 13:21 | 39.20230 | 24.44023 | 34900 ft | 462 kts | 178° |
| 2026-05-07 13:21 | 39.17011 | 24.44400 | 34012 ft | 467 kts | 178° |
| 2026-05-07 13:21 | 39.13811 | 24.44775 | 33054 ft | 464 kts | 178° |
| 2026-05-07 13:21 | 39.10628 | 24.45154 | 32071 ft | 455 kts | 178° |
| 2026-05-07 13:22 | 39.07494 | 24.45526 | 31223 ft | 452 kts | 178° |
| 2026-05-07 13:22 | 39.04378 | 24.45894 | 30690 ft | 447 kts | 178° |
| 2026-05-07 13:22 | 39.01285 | 24.46257 | 30047 ft | 445 kts | 178° |
| 2026-05-07 13:22 | 38.98215 | 24.46616 | 29386 ft | 442 kts | 178° |
| 2026-05-07 13:23 | 38.95163 | 24.46970 | 28788 ft | 437 kts | 178° |
| 2026-05-07 13:23 | 38.92150 | 24.47322 | 28188 ft | 433 kts | 178° |
| 2026-05-07 13:23 | 38.89162 | 24.47672 | 27577 ft | 430 kts | 178° |
| 2026-05-07 13:23 | 38.86188 | 24.48019 | 26985 ft | 427 kts | 178° |
| 2026-05-07 13:24 | 38.83245 | 24.48364 | 26398 ft | 423 kts | 178° |
| 2026-05-07 13:24 | 38.80320 | 24.48706 | 25811 ft | 421 kts | 178° |
| 2026-05-07 13:24 | 38.77416 | 24.49044 | 25239 ft | 418 kts | 178° |
| 2026-05-07 13:24 | 38.74527 | 24.49380 | 24659 ft | 415 kts | 178° |
| 2026-05-07 13:25 | 38.71661 | 24.49712 | 24118 ft | 412 kts | 178° |
| 2026-05-07 13:25 | 38.68808 | 24.50042 | 23563 ft | 410 kts | 179° |
| 2026-05-07 13:25 | 38.65983 | 24.50366 | 22996 ft | 406 kts | 179° |
| 2026-05-07 13:25 | 38.63185 | 24.50688 | 22487 ft | 402 kts | 179° |
| 2026-05-07 13:26 | 38.60413 | 24.51010 | 21991 ft | 398 kts | 179° |
| 2026-05-07 13:26 | 38.57666 | 24.51331 | 21489 ft | 394 kts | 179° |
| 2026-05-07 13:26 | 38.54950 | 24.51645 | 20997 ft | 390 kts | 179° |
| 2026-05-07 13:26 | 38.52258 | 24.51955 | 20502 ft | 387 kts | 179° |
| 2026-05-07 13:27 | 38.49589 | 24.52264 | 19991 ft | 384 kts | 179° |
| 2026-05-07 13:27 | 38.46938 | 24.52574 | 19477 ft | 381 kts | 179° |
| 2026-05-07 13:27 | 38.44338 | 24.52876 | 18955 ft | 379 kts | 179° |
| 2026-05-07 13:27 | 38.41715 | 24.53178 | 18425 ft | 377 kts | 179° |
| 2026-05-07 13:28 | 38.39110 | 24.53478 | 17829 ft | 375 kts | 178° |
| 2026-05-07 13:28 | 38.36522 | 24.53778 | 17287 ft | 371 kts | 178° |
| 2026-05-07 13:28 | 38.33961 | 24.54073 | 16752 ft | 368 kts | 178° |
| 2026-05-07 13:28 | 38.31417 | 24.54364 | 16211 ft | 366 kts | 178° |
| 2026-05-07 13:29 | 38.28887 | 24.54652 | 15670 ft | 364 kts | 178° |
| 2026-05-07 13:29 | 38.26366 | 24.54937 | 15145 ft | 362 kts | 178° |
| 2026-05-07 13:29 | 38.23857 | 24.55223 | 14579 ft | 361 kts | 178° |
| 2026-05-07 13:29 | 38.21361 | 24.55511 | 14046 ft | 360 kts | 177° |
| 2026-05-07 13:30 | 38.18871 | 24.55798 | 13460 ft | 359 kts | 177° |
| 2026-05-07 13:30 | 38.16389 | 24.56074 | 12864 ft | 358 kts | 177° |
| 2026-05-07 13:30 | 38.13916 | 24.56338 | 12287 ft | 356 kts | 177° |
| 2026-05-07 13:30 | 38.11445 | 24.56590 | 11794 ft | 353 kts | 177° |
| 2026-05-07 13:31 | 38.09019 | 24.56838 | 11395 ft | 347 kts | 178° |
| 2026-05-07 13:31 | 38.06622 | 24.57086 | 10985 ft | 343 kts | 177° |
| 2026-05-07 13:31 | 38.04252 | 24.57326 | 10538 ft | 340 kts | 177° |
| 2026-05-07 13:31 | 38.01914 | 24.57561 | 10302 ft | 331 kts | 177° |
| 2026-05-07 13:32 | 37.99654 | 24.57770 | 10178 ft | 319 kts | 178° |
| 2026-05-07 13:32 | 37.97481 | 24.57986 | 10058 ft | 308 kts | 178° |
| 2026-05-07 13:32 | 37.95375 | 24.58201 | 9920 ft | 299 kts | 177° |
| 2026-05-07 13:32 | 37.93319 | 24.58395 | 9632 ft | 295 kts | 178° |
| 2026-05-07 13:33 | 37.91282 | 24.58600 | 9323 ft | 292 kts | 177° |
| 2026-05-07 13:33 | 37.89267 | 24.58786 | 9024 ft | 289 kts | 177° |
| 2026-05-07 13:33 | 37.87269 | 24.58960 | 8695 ft | 287 kts | 179° |
| 2026-05-07 13:33 | 37.85340 | 24.58552 | 8393 ft | 279 kts | 205° |
| 2026-05-07 13:34 | 37.83818 | 24.57123 | 8079 ft | 273 kts | 232° |
| 2026-05-07 13:34 | 37.83116 | 24.52652 | 7475 ft | 270 kts | 286° |
| 2026-05-07 13:34 | 37.84078 | 24.50616 | 7115 ft | 275 kts | 310° |
| 2026-05-07 13:35 | 37.85461 | 24.48927 | 6734 ft | 277 kts | 315° |
| 2026-05-07 13:35 | 37.86894 | 24.47287 | 6366 ft | 278 kts | 315° |
| 2026-05-07 13:35 | 37.88336 | 24.45652 | 6013 ft | 278 kts | 315° |
| 2026-05-07 13:35 | 37.89774 | 24.44013 | 5679 ft | 277 kts | 315° |
| 2026-05-07 13:36 | 37.91207 | 24.42378 | 5353 ft | 276 kts | 315° |
| 2026-05-07 13:36 | 37.92629 | 24.40752 | 5073 ft | 274 kts | 315° |
| 2026-05-07 13:36 | 37.94046 | 24.39139 | 5000 ft | 275 kts | 315° |
| 2026-05-07 13:36 | 37.95472 | 24.37515 | 5003 ft | 275 kts | 316° |
| 2026-05-07 13:37 | 37.96861 | 24.35908 | 4931 ft | 273 kts | 315° |
| 2026-05-07 13:37 | 37.98212 | 24.34231 | 4580 ft | 272 kts | 311° |
| 2026-05-07 13:37 | 37.99507 | 24.32489 | 4271 ft | 271 kts | 310° |
| 2026-05-07 13:37 | 38.00797 | 24.30764 | 4038 ft | 268 kts | 310° |
| 2026-05-07 13:38 | 38.02085 | 24.29047 | 4003 ft | 270 kts | 310° |
| 2026-05-07 13:38 | 38.03375 | 24.27318 | 3996 ft | 269 kts | 310° |
| 2026-05-07 13:38 | 38.04667 | 24.25594 | 4002 ft | 270 kts | 310° |
| 2026-05-07 13:38 | 38.05940 | 24.23894 | 3946 ft | 261 kts | 311° |
| 2026-05-07 13:39 | 38.07166 | 24.22244 | 3829 ft | 253 kts | 310° |
| 2026-05-07 13:39 | 38.08272 | 24.20568 | 3704 ft | 242 kts | 295° |
| 2026-05-07 13:39 | 38.08757 | 24.18607 | 3579 ft | 228 kts | 277° |
| 2026-05-07 13:39 | 38.09022 | 24.16668 | 3453 ft | 218 kts | 275° |
| 2026-05-07 13:40 | 38.09258 | 24.14810 | 3326 ft | 209 kts | 276° |
| 2026-05-07 13:40 | 38.09426 | 24.13000 | 3068 ft | 204 kts | 264° |
| 2026-05-07 13:40 | 38.09143 | 24.11250 | 2998 ft | 203 kts | 244° |
| 2026-05-07 13:40 | 38.08399 | 24.09745 | 3000 ft | 203 kts | 226° |
| 2026-05-07 13:41 | 38.07314 | 24.08595 | 3005 ft | 204 kts | 216° |
| 2026-05-07 13:41 | 38.06186 | 24.07519 | 2925 ft | 200 kts | 216° |
| 2026-05-07 13:41 | 38.05093 | 24.06474 | 2734 ft | 195 kts | 217° |
| 2026-05-07 13:41 | 38.04021 | 24.05449 | 2510 ft | 188 kts | 216° |
| 2026-05-07 13:42 | 38.03025 | 24.04497 | 2260 ft | 171 kts | 216° |
| 2026-05-07 13:42 | 38.02119 | 24.03631 | 2044 ft | 155 kts | 216° |
| 2026-05-07 13:42 | 38.01323 | 24.02870 | 1865 ft | 133 kts | 215° |
| 2026-05-07 13:42 | 38.00614 | 24.02190 | 1708 ft | 125 kts | 213° |
| 2026-05-07 13:43 | 37.99937 | 24.01528 | 1516 ft | 123 kts | 214° |
| 2026-05-07 13:43 | 37.99258 | 24.00871 | 1318 ft | 121 kts | 214° |
| 2026-05-07 13:43 | 37.98574 | 24.00233 | 1146 ft | 122 kts | 215° |
| 2026-05-07 13:43 | 37.97877 | 23.99576 | 984 ft | 128 kts | 217° |
| 2026-05-07 13:44 | 37.97161 | 23.98899 | 820 ft | 126 kts | 217° |
| 2026-05-07 13:44 | 37.96480 | 23.98258 | 658 ft | 118 kts | 217° |
| 2026-05-07 13:44 | 37.95809 | 23.97605 | 471 ft | 123 kts | 216° |
| 2026-05-07 13:44 | 37.95121 | 23.96955 | 356 ft | 123 kts | 217° |
| 2026-05-07 13:45 | 37.94493 | 23.96362 | 293 ft | 93 kts | 217° |
| 2026-05-07 13:45 | 37.94115 | 23.96003 | 283 ft | 41 kts | 216° |
| 2026-05-07 13:45 | 37.93916 | 23.95800 | 279 ft | 32 kts | 228° |
| 2026-05-07 13:45 | 37.93828 | 23.95627 | 283 ft | 16 kts | 246° |
| 2026-05-07 13:46 | 37.93792 | 23.95516 | 292 ft | 7 kts | 256° |
| 2026-05-07 13:46 | 37.93794 | 23.95508 | 293 ft | 0 kts | 287° |
| 2026-05-07 13:46 | 37.93810 | 23.95484 | 294 ft | 4 kts | 308° |
| 2026-05-07 13:46 | 37.93827 | 23.95457 | 298 ft | 8 kts | 307° |
| 2026-05-07 13:47 | 37.93867 | 23.95383 | 300 ft | 11 kts | 290° |
| 2026-05-07 13:47 | 37.93828 | 23.95305 | 299 ft | 13 kts | 214° |
| 2026-05-07 13:47 | 37.93747 | 23.95231 | 301 ft | 16 kts | 217° |
| 2026-05-07 13:47 | 37.93650 | 23.95138 | 300 ft | 19 kts | 217° |
| 2026-05-07 13:48 | 37.93544 | 23.95038 | 301 ft | 17 kts | 217° |
| 2026-05-07 13:48 | 37.93439 | 23.94938 | 302 ft | 20 kts | 217° |
| 2026-05-07 13:48 | 37.93335 | 23.94839 | 301 ft | 16 kts | 217° |
| 2026-05-07 13:48 | 37.93234 | 23.94743 | 302 ft | 20 kts | 216° |
| 2026-05-07 13:49 | 37.93136 | 23.94652 | 304 ft | 16 kts | 217° |
| 2026-05-07 13:49 | 37.93123 | 23.94560 | 302 ft | 12 kts | 307° |
| 2026-05-07 13:49 | 37.93176 | 23.94466 | 302 ft | 10 kts | 305° |
| 2026-05-07 13:49 | 37.93186 | 23.94410 | 302 ft | 5 kts | 218° |
| 2026-05-07 13:50 | 37.93156 | 23.94380 | 301 ft | 4 kts | 217° |
| 2026-05-07 13:50 | 37.93141 | 23.94366 | 301 ft | 1 kts | 217° |